createdAt,value
2018-07-10T00:03:14.772Z,81.25
2018-07-10T00:06:17.353Z,81.05
2018-07-10T00:09:14.728Z,81.20
2018-07-10T00:11:44.085Z,82.18
2018-07-10T00:14:13.431Z,81.87
2018-07-10T00:16:42.795Z,82.02
2018-07-10T00:19:12.260Z,81.75
2018-07-10T00:21:41.603Z,81.52
2018-07-10T00:24:10.971Z,82.17
2018-07-10T00:26:40.388Z,82.54
2018-07-10T00:29:09.735Z,83.08
2018-07-10T00:31:39.098Z,82.60
2018-07-10T00:34:08.440Z,81.87
2018-07-10T00:36:37.819Z,81.41
2018-07-10T00:39:09.493Z,81.51
2018-07-10T00:41:40.139Z,81.42
2018-07-10T00:44:09.848Z,81.13
2018-07-10T00:46:40.480Z,81.03
2018-07-10T00:49:09.875Z,80.77
2018-07-10T00:51:41.292Z,80.58
2018-07-10T00:54:10.920Z,81.15
2018-07-10T00:56:40.290Z,81.57
2018-07-10T00:59:09.708Z,80.96
2018-07-10T01:01:39.104Z,80.83
2018-07-10T01:04:16.016Z,81.31
2018-07-10T01:06:45.373Z,83.01
2018-07-10T01:09:16.270Z,82.24
2018-07-10T01:11:45.641Z,82.24
2018-07-10T01:14:15.013Z,81.99
2018-07-10T01:16:44.376Z,80.68
2018-07-10T01:19:16.207Z,81.84
2018-07-10T01:22:02.594Z,82.58
2018-07-10T01:24:38.666Z,80.40
2018-07-10T01:27:11.718Z,80.40
2018-07-10T01:29:50.863Z,81.43
2018-07-10T01:32:26.654Z,82.22
2018-07-10T01:35:06.719Z,80.96
2018-07-10T01:37:42.335Z,81.13
2018-07-10T01:40:16.373Z,81.53
2018-07-10T01:42:55.133Z,80.65
2018-07-10T01:45:36.128Z,81.08
2018-07-10T01:48:13.241Z,80.44
2018-07-10T01:50:47.167Z,80.45
2018-07-10T01:53:22.257Z,80.17
2018-07-10T01:56:00.557Z,79.58
2018-07-10T01:58:37.261Z,79.44
2018-07-10T02:01:15.617Z,79.15
2018-07-10T02:03:51.705Z,79.74
2018-07-10T02:06:26.665Z,78.92
2018-07-10T02:09:06.083Z,79.47
2018-07-10T02:11:43.211Z,79.90
2018-07-10T02:14:16.923Z,81.15
2018-07-10T02:17:00.604Z,80.61
2018-07-10T02:19:34.068Z,80.92
2018-07-10T02:22:09.706Z,79.96
2018-07-10T02:24:44.582Z,80.34
2018-07-10T02:27:23.966Z,79.66
2018-07-10T02:30:01.440Z,80.29
2018-07-10T02:32:38.483Z,80.29
2018-07-10T02:35:15.541Z,79.93
2018-07-10T02:37:54.487Z,80.23
2018-07-10T02:40:29.997Z,79.43
2018-07-10T02:43:07.385Z,80.28
2018-07-10T02:45:42.782Z,80.10
2018-07-10T02:48:21.816Z,79.69
2018-07-10T02:50:58.894Z,78.53
2018-07-10T02:53:36.685Z,79.43
2018-07-10T02:56:11.564Z,79.31
2018-07-10T02:58:51.429Z,79.47
2018-07-10T03:01:32.477Z,78.87
2018-07-10T03:04:05.045Z,78.19
2018-07-10T03:09:22.283Z,78.70
2018-07-10T03:12:01.338Z,79.14
2018-07-10T03:14:39.009Z,79.31
2018-07-10T03:17:19.498Z,79.18
2018-07-10T03:19:55.938Z,78.07
2018-07-10T03:22:32.471Z,78.51
2018-07-10T03:25:09.800Z,78.50
2018-07-10T03:27:48.663Z,78.99
2018-07-10T03:30:23.453Z,78.28
2018-07-10T03:32:58.305Z,78.75
2018-07-10T03:35:33.318Z,77.99
2018-07-10T03:38:13.078Z,78.20
2018-07-10T03:40:49.261Z,78.57
2018-07-10T03:43:27.094Z,78.54
2018-07-10T03:46:02.590Z,78.39
2018-07-10T03:48:38.234Z,78.63
2018-07-10T03:51:15.476Z,77.89
2018-07-10T03:53:50.415Z,79.13
2018-07-10T03:56:25.965Z,79.08
2018-07-10T03:59:02.565Z,77.39
2018-07-10T04:01:38.713Z,78.98
2018-07-10T04:04:15.982Z,78.67
2018-07-10T04:06:51.143Z,77.66
2018-07-10T04:09:24.921Z,77.82
2018-07-10T04:11:58.604Z,76.83
2018-07-10T04:14:33.174Z,77.58
2018-07-10T04:17:06.278Z,77.49
2018-07-10T04:19:40.038Z,76.86
2018-07-10T04:22:15.125Z,77.34
2018-07-10T04:24:55.992Z,77.02
2018-07-10T04:27:38.547Z,76.33
2018-07-10T04:30:25.075Z,76.11
2018-07-10T04:32:59.617Z,76.97
2018-07-10T04:35:33.894Z,76.64
2018-07-10T04:38:09.814Z,76.96
2018-07-10T04:40:44.637Z,77.69
2018-07-10T04:43:23.596Z,76.48
2018-07-10T04:46:01.068Z,76.97
2018-07-10T04:48:36.988Z,77.59
2018-07-10T04:51:21.536Z,77.14
2018-07-10T04:54:06.299Z,77.18
2018-07-10T04:56:49.779Z,77.70
2018-07-10T04:59:23.159Z,77.31
2018-07-10T05:01:55.868Z,78.18
2018-07-10T05:04:29.923Z,77.74
2018-07-10T05:07:08.306Z,77.70
2018-07-10T05:09:48.220Z,77.80
2018-07-10T05:12:21.152Z,77.58
2018-07-10T05:14:53.073Z,77.89
2018-07-10T05:17:27.563Z,78.16
2018-07-10T05:20:00.256Z,77.13
2018-07-10T05:22:42.609Z,77.15
2018-07-10T05:25:15.189Z,76.69
2018-07-10T05:27:48.273Z,76.91
2018-07-10T05:30:21.595Z,76.80
2018-07-10T05:32:53.544Z,75.72
2018-07-10T05:35:25.578Z,76.07
2018-07-10T05:37:57.143Z,76.08
2018-07-10T05:43:04.317Z,75.78
2018-07-10T05:45:35.372Z,75.29
2018-07-10T05:48:05.861Z,75.56
2018-07-10T05:50:37.312Z,75.28
2018-07-10T05:53:11.947Z,75.11
2018-07-10T05:55:46.812Z,75.80
2018-07-10T05:58:17.200Z,75.45
2018-07-10T06:00:46.538Z,75.55
2018-07-10T06:03:15.964Z,75.44
2018-07-10T06:05:45.344Z,74.87
2018-07-10T06:08:14.922Z,75.07
2018-07-10T06:10:44.303Z,74.68
2018-07-10T06:13:13.684Z,73.69
2018-07-10T06:15:43.068Z,74.46
2018-07-10T06:18:12.424Z,73.53
2018-07-10T06:20:42.348Z,72.62
2018-07-10T06:23:12.024Z,70.72
2018-07-10T06:25:41.392Z,71.59
2018-07-10T06:28:16.707Z,71.08
2018-07-10T06:30:46.047Z,69.44
2018-07-10T06:33:26.059Z,70.31
2018-07-10T06:36:38.856Z,71.60
2018-07-10T06:39:15.137Z,70.92
2018-07-10T06:41:49.680Z,71.69
2018-07-10T06:44:20.291Z,71.85
2018-07-10T06:46:58.660Z,70.55
2018-07-10T06:49:35.496Z,67.59
2018-07-10T06:52:09.912Z,68.84
2018-07-10T06:55:03.900Z,68.54
2018-07-10T06:57:36.575Z,65.50
2018-07-10T07:09:13.081Z,64.53
2018-07-10T07:11:42.401Z,67.13
2018-07-10T07:14:11.712Z,67.66
2018-07-10T07:16:41.072Z,65.21
2018-07-10T07:19:10.568Z,65.32
2018-07-10T07:21:39.932Z,66.32
2018-07-10T07:24:09.276Z,65.42
2018-07-10T07:26:38.624Z,63.65
2018-07-10T07:29:08.109Z,63.34
2018-07-10T07:31:37.454Z,63.92
2018-07-10T07:34:06.785Z,64.33
2018-07-10T07:36:36.164Z,61.88
2018-07-10T07:39:06.179Z,61.41
2018-07-10T07:41:35.514Z,61.83
2018-07-10T07:44:05.072Z,62.15
2018-07-10T07:46:34.221Z,63.04
2018-07-10T07:49:05.132Z,62.65
2018-07-10T07:51:34.769Z,60.92
2018-07-10T07:54:04.350Z,62.03
2018-07-10T07:56:34.128Z,60.71
2018-07-10T07:59:03.901Z,60.30
2018-07-10T08:01:33.479Z,60.65
2018-07-10T08:04:03.129Z,61.88
2018-07-10T08:06:32.960Z,61.29
2018-07-10T08:09:05.073Z,61.29
2018-07-10T08:11:34.927Z,59.06
2018-07-10T08:14:05.356Z,60.13
2018-07-10T08:16:35.022Z,59.76
2018-07-10T08:19:05.641Z,56.45
2018-07-10T08:21:35.004Z,58.84
2018-07-10T08:24:04.509Z,56.61
2018-07-10T08:26:33.847Z,55.71
2018-07-10T08:29:03.600Z,56.40
2018-07-10T08:31:33.286Z,55.94
2018-07-10T08:34:02.662Z,56.99
2018-07-10T08:36:32.034Z,56.85
2018-07-10T08:39:01.440Z,57.54
2018-07-10T08:41:50.013Z,56.18
2018-07-10T08:44:20.694Z,57.25
2018-07-10T08:46:55.707Z,57.35
2018-07-10T08:49:29.424Z,57.18
2018-07-10T08:51:58.774Z,55.91
2018-07-10T08:54:28.168Z,56.32
2018-07-10T08:56:57.578Z,55.81
2018-07-10T08:59:26.911Z,55.43
2018-07-10T09:01:56.243Z,55.23
2018-07-10T09:04:25.591Z,55.81
2018-07-10T09:06:54.945Z,54.60
2018-07-10T09:09:24.312Z,56.20
2018-07-10T09:11:53.692Z,55.08
2018-07-10T09:14:23.136Z,55.69
2018-07-10T09:16:52.452Z,57.83
2018-07-10T09:19:26.536Z,57.33
2018-07-10T09:22:02.764Z,58.39
2018-07-10T09:24:33.339Z,57.55
2018-07-10T09:27:04.669Z,57.57
2018-07-10T09:29:34.029Z,56.35
2018-07-10T09:32:03.396Z,56.01
2018-07-10T09:34:32.724Z,58.46
2018-07-10T09:37:02.465Z,56.67
2018-07-10T09:39:31.789Z,58.11
2018-07-10T09:42:01.111Z,57.35
2018-07-10T09:44:30.183Z,55.83
2018-07-10T09:46:59.550Z,55.14
2018-07-10T09:49:28.835Z,55.85
2018-07-10T09:51:58.177Z,56.37
2018-07-10T09:54:27.517Z,56.11
2018-07-10T09:56:57.128Z,55.02
2018-07-10T09:59:26.555Z,55.99
2018-07-10T10:02:01.545Z,55.95
2018-07-10T10:04:31.741Z,56.14
2018-07-10T10:07:01.061Z,55.57
2018-07-10T10:09:30.400Z,55.56
2018-07-10T10:11:59.756Z,56.54
2018-07-10T10:14:29.084Z,57.37
2018-07-10T10:16:58.427Z,59.02
2018-07-10T10:19:28.650Z,58.31
2018-07-10T10:21:58.035Z,59.02
2018-07-10T10:24:27.352Z,60.02
2018-07-10T10:26:58.017Z,60.55
2018-07-10T10:29:27.424Z,59.40
2018-07-10T10:31:56.980Z,61.07
2018-07-10T10:34:26.347Z,61.11
2018-07-10T10:36:55.680Z,60.89
2018-07-10T10:39:25.032Z,60.83
2018-07-10T10:41:54.505Z,61.82
2018-07-10T10:44:25.311Z,61.13
2018-07-10T10:46:54.660Z,62.29
2018-07-10T10:49:26.039Z,61.69
2018-07-10T10:51:55.346Z,63.29
2018-07-10T10:54:24.666Z,64.77
2018-07-10T10:56:54.065Z,64.84
2018-07-10T10:59:24.980Z,64.97
2018-07-10T11:01:55.327Z,65.07
2018-07-10T11:04:24.407Z,65.02
2018-07-10T11:06:54.641Z,65.17
2018-07-10T11:09:23.984Z,69.61
2018-07-10T11:11:53.351Z,68.16
2018-07-10T11:14:22.784Z,71.82
2018-07-10T11:16:52.146Z,69.31
2018-07-10T11:19:31.704Z,69.67
2018-07-10T11:22:09.194Z,72.68
2018-07-10T11:25:05.850Z,72.90
2018-07-10T11:28:14.133Z,75.43
2018-07-10T11:30:43.488Z,77.26
2018-07-10T11:33:12.832Z,78.51
2018-07-10T11:35:42.200Z,79.89
2018-07-10T11:38:13.371Z,78.65
2018-07-10T11:40:45.641Z,80.65
2018-07-10T11:43:15.143Z,81.68
2018-07-10T11:45:44.695Z,80.79
2018-07-10T11:48:14.106Z,80.01
2018-07-10T11:50:43.420Z,80.14
2018-07-10T11:53:13.088Z,80.97
2018-07-10T11:55:42.155Z,83.82
2018-07-10T11:58:12.444Z,84.68
2018-07-10T12:00:41.780Z,83.00
2018-07-10T12:03:11.147Z,86.02
2018-07-10T12:05:41.769Z,85.00
2018-07-10T12:08:11.120Z,85.11
2018-07-10T12:10:40.481Z,86.24
2018-07-10T12:13:09.876Z,85.16
2018-07-10T12:15:39.183Z,86.00
2018-07-10T12:18:08.524Z,86.90
2018-07-10T12:20:40.953Z,85.18
2018-07-10T12:23:12.089Z,85.19
2018-07-10T12:25:44.334Z,84.34
2018-07-10T12:28:14.692Z,82.70
2018-07-10T12:30:44.026Z,83.89
2018-07-10T12:33:13.349Z,81.92
2018-07-10T12:35:42.688Z,83.76
2018-07-10T12:38:12.032Z,82.15
2018-07-10T12:40:41.396Z,81.09
2018-07-10T12:43:10.739Z,80.60
2018-07-10T12:45:40.112Z,78.47
2018-07-10T12:48:09.448Z,78.20
2018-07-10T12:50:38.848Z,78.88
2018-07-10T12:53:08.201Z,76.20
2018-07-10T12:55:38.247Z,80.76
2018-07-10T12:58:07.627Z,79.52
2018-07-10T13:00:39.161Z,80.11
2018-07-10T13:03:10.670Z,79.36
2018-07-10T13:05:51.361Z,79.99
2018-07-10T13:08:20.816Z,80.34
2018-07-10T13:10:50.188Z,78.61
2018-07-10T13:13:19.693Z,78.62
2018-07-10T13:15:49.071Z,80.97
2018-07-10T13:18:25.883Z,79.37
2018-07-10T13:20:55.267Z,80.19
2018-07-10T13:23:24.603Z,81.11
2018-07-10T13:25:53.991Z,81.24
2018-07-10T13:28:23.330Z,82.19
2018-07-10T13:30:52.710Z,83.95
2018-07-10T13:33:22.101Z,82.81
2018-07-10T13:35:51.494Z,84.19
2018-07-10T13:38:22.433Z,85.86
2018-07-10T13:40:54.537Z,86.36
2018-07-10T13:43:23.893Z,85.97
2018-07-10T13:45:53.216Z,84.84
2018-07-10T13:48:22.600Z,85.41
2018-07-10T13:50:51.947Z,85.45
2018-07-10T13:53:21.312Z,83.52
2018-07-10T13:55:50.689Z,83.52
2018-07-10T13:58:24.793Z,82.02
2018-07-10T14:00:58.791Z,79.86
2018-07-10T14:03:28.117Z,78.30
2018-07-10T14:05:57.498Z,76.42
2018-07-10T14:08:26.840Z,76.08
2018-07-10T14:10:56.211Z,77.19
2018-07-10T14:13:25.719Z,76.04
2018-07-10T14:15:55.648Z,80.33
2018-07-10T14:18:25.368Z,79.03
2018-07-10T14:21:01.179Z,80.98
2018-07-10T14:23:30.516Z,81.15
2018-07-10T14:25:59.884Z,82.35
2018-07-10T14:28:29.275Z,81.62
2018-07-10T14:30:59.140Z,82.45
2018-07-10T14:33:28.564Z,80.51
2018-07-10T14:35:57.927Z,82.01
2018-07-10T14:38:30.098Z,83.66
2018-07-10T14:41:04.127Z,82.32
2018-07-10T14:43:41.664Z,82.32
2018-07-10T14:46:16.792Z,81.87
2018-07-10T14:48:50.880Z,79.64
2018-07-10T14:51:24.889Z,77.93
2018-07-10T14:53:54.269Z,74.62
2018-07-10T14:56:23.677Z,70.81
2018-07-10T14:58:53.295Z,66.97
2018-07-10T15:01:22.812Z,67.37
2018-07-10T15:03:52.139Z,69.40
2018-07-10T15:06:21.473Z,71.35
2018-07-10T15:08:50.816Z,72.66
2018-07-10T15:11:20.128Z,75.34
2018-07-10T15:14:04.249Z,77.86
2018-07-10T15:16:38.970Z,76.11
2018-07-10T15:19:08.376Z,76.12
2018-07-10T15:21:37.784Z,76.14
2018-07-10T15:24:08.324Z,75.07
2018-07-10T15:26:37.647Z,73.43
2018-07-10T15:29:06.972Z,76.94
2018-07-10T15:31:36.315Z,76.29
2018-07-10T15:34:05.637Z,75.44
2018-07-10T15:36:34.956Z,74.87
2018-07-10T15:39:05.462Z,76.95
2018-07-10T15:41:34.806Z,78.25
2018-07-10T15:44:04.147Z,78.51
2018-07-10T15:46:33.515Z,78.37
2018-07-10T15:49:03.745Z,77.43
2018-07-10T15:51:33.465Z,77.15
2018-07-10T15:54:02.820Z,78.21
2018-07-10T15:56:32.144Z,79.21
2018-07-10T15:59:01.520Z,78.29
2018-07-10T16:01:30.834Z,78.23
2018-07-10T16:04:00.186Z,79.21
2018-07-10T16:06:31.307Z,79.82
2018-07-10T16:09:14.426Z,80.03
2018-07-10T16:11:43.884Z,79.61
2018-07-10T16:14:13.269Z,79.36
2018-07-10T16:16:42.652Z,79.92
2018-07-10T16:19:17.916Z,80.64
2018-07-10T16:21:59.520Z,81.31
2018-07-10T16:24:31.538Z,81.01
2018-07-10T16:27:00.978Z,83.22
2018-07-10T16:29:30.370Z,84.39
2018-07-10T16:32:02.909Z,86.83
2018-07-10T16:34:32.418Z,88.73
2018-07-10T16:37:02.840Z,89.08
2018-07-10T16:39:32.161Z,89.41
2018-07-10T16:42:06.864Z,90.43
2018-07-10T16:44:38.236Z,90.64
2018-07-10T16:47:13.776Z,91.82
2018-07-10T16:49:45.907Z,93.33
2018-07-10T16:52:31.968Z,94.10
2018-07-10T16:55:01.347Z,95.72
2018-07-10T16:57:30.746Z,96.07
2018-07-10T17:00:00.159Z,96.83
2018-07-10T17:02:29.687Z,97.18
2018-07-10T17:04:59.806Z,97.61
2018-07-10T17:07:29.163Z,98.32
2018-07-10T17:09:58.577Z,99.46
2018-07-10T17:12:28.118Z,98.99
2018-07-10T17:14:58.772Z,99.56
2018-07-10T17:17:28.668Z,100.00
2018-07-10T17:19:58.188Z,99.11
2018-07-10T17:22:27.564Z,99.02
2018-07-10T17:24:57.070Z,99.54
2018-07-10T17:27:32.113Z,100.00
2018-07-10T17:30:02.519Z,100.00
2018-07-10T17:32:32.732Z,100.00
2018-07-10T17:35:02.666Z,100.00
2018-07-10T17:37:35.177Z,100.00
2018-07-10T17:40:05.883Z,100.00
2018-07-10T17:42:36.832Z,100.00
2018-07-10T17:45:06.640Z,100.00
2018-07-10T17:47:36.244Z,100.00
2018-07-10T17:50:05.866Z,100.00
2018-07-10T17:52:35.565Z,100.00
2018-07-10T17:55:05.285Z,100.00
2018-07-10T17:57:35.452Z,100.00
2018-07-10T18:00:05.913Z,100.00
2018-07-10T18:02:35.331Z,100.00
2018-07-10T18:05:04.687Z,100.00
2018-07-10T18:07:34.232Z,100.00
2018-07-10T18:10:06.576Z,100.00
2018-07-10T18:12:35.924Z,100.00
2018-07-10T18:15:05.301Z,100.00
2018-07-10T18:17:34.738Z,100.00
2018-07-10T18:20:04.252Z,100.00
2018-07-10T18:22:33.646Z,100.00
2018-07-10T18:25:03.011Z,100.00
2018-07-10T18:27:32.362Z,100.00
2018-07-10T18:30:02.049Z,100.00
2018-07-10T18:32:31.432Z,100.00
2018-07-10T18:35:00.805Z,99.84
2018-07-10T18:37:31.980Z,99.47
2018-07-10T18:40:01.877Z,100.00
2018-07-10T18:42:31.595Z,99.70
2018-07-10T18:45:01.874Z,96.09
2018-07-10T18:47:33.374Z,100.00
2018-07-10T18:50:05.172Z,99.16
2018-07-10T18:52:36.333Z,98.52
2018-07-10T18:55:07.456Z,99.26
2018-07-10T18:59:56.442Z,99.09
2018-07-10T19:02:41.315Z,97.68
2018-07-10T19:05:14.112Z,97.95
2018-07-10T19:07:45.988Z,96.43
2018-07-10T19:10:17.671Z,95.62
2018-07-10T19:12:50.464Z,95.00
2018-07-10T19:15:21.475Z,94.05
2018-07-10T19:17:54.483Z,95.80
2018-07-10T19:20:29.463Z,96.24
2018-07-10T19:23:11.742Z,97.04
2018-07-10T19:25:43.930Z,96.21
2018-07-10T19:28:16.775Z,95.80
2018-07-10T19:30:59.490Z,95.92
2018-07-10T19:33:31.263Z,95.65
2018-07-10T19:36:03.970Z,95.46
2018-07-10T19:38:36.171Z,97.38
2018-07-10T19:41:08.467Z,97.30
2018-07-10T19:43:41.074Z,97.87
2018-07-10T19:46:14.757Z,98.03
2018-07-10T19:48:50.456Z,98.88
2018-07-10T19:51:26.627Z,98.14
2018-07-10T19:54:10.682Z,97.94
2018-07-10T19:56:43.955Z,98.08
2018-07-10T19:59:15.691Z,98.46
2018-07-10T20:02:04.473Z,98.44
2018-07-10T20:04:46.891Z,97.67
2018-07-10T20:07:42.347Z,97.45
2018-07-10T20:10:18.446Z,97.93
2018-07-10T20:13:02.919Z,98.37
2018-07-10T20:15:42.896Z,99.27
2018-07-10T20:20:25.978Z,100.00
2018-07-10T20:23:18.645Z,100.00
2018-07-10T20:26:05.391Z,100.00
2018-07-10T20:28:49.677Z,100.00
2018-07-10T20:32:31.730Z,100.00
2018-07-10T20:35:35.504Z,100.00
2018-07-10T20:38:04.903Z,100.00
2018-07-10T20:40:38.090Z,100.00
2018-07-10T20:43:13.609Z,99.76
2018-07-10T20:45:48.944Z,99.75
2018-07-10T20:49:28.824Z,99.18
2018-07-10T20:52:04.929Z,99.00
2018-07-10T20:55:14.395Z,99.57
2018-07-10T20:57:57.011Z,99.58
2018-07-10T21:00:29.460Z,100.00
2018-07-10T21:04:06.337Z,99.82
2018-07-10T21:06:56.372Z,100.00
2018-07-10T21:09:58.444Z,99.73
2018-07-10T21:12:48.524Z,99.85
2018-07-10T21:15:29.268Z,98.24
2018-07-10T21:18:14.345Z,99.02
2018-07-10T21:21:00.211Z,99.38
2018-07-10T21:23:53.603Z,99.43
2018-07-10T21:27:36.421Z,99.08
2018-07-10T21:30:48.081Z,99.39
2018-07-10T21:34:29.103Z,98.79
2018-07-10T21:37:09.456Z,98.75
2018-07-10T21:39:51.432Z,98.81
2018-07-10T21:42:48.529Z,98.89
2018-07-10T21:47:37.968Z,98.58
2018-07-10T21:50:09.626Z,99.12
2018-07-10T21:52:38.941Z,98.82
2018-07-10T21:55:08.387Z,98.90
2018-07-10T21:57:41.703Z,98.42
2018-07-10T22:00:11.060Z,98.97
2018-07-10T22:02:40.392Z,97.85
2018-07-10T22:05:09.776Z,98.40
2018-07-10T22:07:39.116Z,98.24
2018-07-10T22:10:09.177Z,98.02
2018-07-10T22:12:46.827Z,98.64
2018-07-10T22:15:16.339Z,98.05
2018-07-10T22:17:46.131Z,98.20
2018-07-10T22:20:16.260Z,98.64
2018-07-10T22:22:45.623Z,98.29
2018-07-10T22:25:14.973Z,99.46
2018-07-10T22:27:44.347Z,99.38
2018-07-10T22:30:21.465Z,99.41
2018-07-10T22:32:56.134Z,99.03
2018-07-10T22:35:25.805Z,99.12
2018-07-10T22:37:55.522Z,99.11
2018-07-10T22:40:24.875Z,98.42
2018-07-10T22:42:54.332Z,98.54
2018-07-10T22:45:23.672Z,99.00
2018-07-10T22:47:53.015Z,98.75
2018-07-10T22:50:23.971Z,99.19
2018-07-10T22:52:58.092Z,99.20
2018-07-10T22:55:29.694Z,98.50
2018-07-10T22:58:05.518Z,98.44
2018-07-10T23:00:37.261Z,98.59
2018-07-10T23:03:25.708Z,97.75
2018-07-10T23:05:55.855Z,98.03
2018-07-10T23:08:34.924Z,97.87
2018-07-10T23:11:06.277Z,98.11
2018-07-10T23:13:39.788Z,97.62
2018-07-10T23:16:09.968Z,97.54
2018-07-10T23:18:39.460Z,97.91
2018-07-10T23:21:11.880Z,98.43
2018-07-10T23:23:41.313Z,97.73
2018-07-10T23:26:12.225Z,97.49
2018-07-10T23:28:42.360Z,97.71
2018-07-10T23:31:14.844Z,97.22
2018-07-10T23:33:46.579Z,97.86
2018-07-10T23:36:15.945Z,98.03
2018-07-10T23:39:07.440Z,98.13
2018-07-10T23:41:48.939Z,97.76
2018-07-10T23:44:18.821Z,98.36
2018-07-10T23:46:59.367Z,98.76
2018-07-10T23:49:28.433Z,98.12
2018-07-10T23:52:14.809Z,98.59
2018-07-10T23:54:50.535Z,99.54
2018-07-10T23:57:19.936Z,99.60
2018-07-10T23:59:49.308Z,100.00
